Almont Township, Michigan
Current Conditions -  °F | °C
As of 5:33 PM on Friday 28 Nov 2014 (Local Time) from KD95 Reporting Station
Light Snow Light Snow  
Wind Chill: 18°   Ceiling: 8000
Heat Index: 24°   Visibility: 7mi
Dew Point: 19°   Wind: 5mph
Humidity: 83%   Direction: 170°S
Pressure: 30.15"   Gusts: NA
Location:  42.9337°N, 83.0375°W
Report Text: KD95 282233Z AUTO 17004KT 7SM -SN SCT044 SCT060 OVC080 M04/M07 A3015 RMK AO2 T10451070
Loading
Personal Weather Stations






























Interactive Weather Map New forecast layout! Learn more

10-Day Weather Forecast

Advertisements
Track Severe Weather on mobile